createdAt,value
2022-10-04T00:02:02.961Z,12.67
2022-10-04T00:07:17.367Z,12.67
2022-10-04T00:12:31.564Z,12.60
2022-10-04T00:17:37.198Z,12.61
2022-10-04T00:22:45.718Z,12.58
2022-10-04T00:28:17.612Z,12.60
2022-10-04T00:33:41.925Z,12.57
2022-10-04T00:38:50.403Z,12.58
2022-10-04T00:43:58.532Z,12.61
2022-10-04T00:49:06.972Z,12.60
2022-10-04T00:54:21.252Z,12.59
2022-10-04T00:59:44.926Z,12.61
2022-10-04T01:04:56.347Z,12.57
2022-10-04T01:10:05.646Z,12.57
2022-10-04T01:15:29.278Z,12.56
2022-10-04T01:20:37.726Z,12.57
2022-10-04T01:25:48.543Z,12.57
2022-10-04T01:30:54.636Z,12.56
2022-10-04T01:36:00.185Z,12.61
2022-10-04T01:41:08.722Z,12.60
2022-10-04T01:46:17.350Z,12.62
2022-10-04T01:51:28.669Z,12.58
2022-10-04T01:56:37.172Z,12.55
2022-10-04T02:01:51.419Z,12.53
2022-10-04T02:06:59.475Z,12.54
2022-10-04T02:12:06.260Z,12.52
2022-10-04T02:17:14.182Z,12.51
2022-10-04T02:22:20.124Z,12.54
2022-10-04T02:27:31.486Z,12.51
2022-10-04T02:32:57.240Z,12.47
2022-10-04T02:38:11.650Z,12.45
2022-10-04T02:43:20.095Z,12.43
2022-10-04T02:48:36.887Z,12.43
2022-10-04T02:54:03.612Z,12.42
2022-10-04T02:59:10.672Z,12.44
2022-10-04T03:04:16.354Z,12.46
2022-10-04T03:09:29.462Z,12.52
2022-10-04T03:14:32.569Z,12.50
2022-10-04T03:19:38.970Z,12.54
2022-10-04T03:24:50.123Z,12.61
2022-10-04T03:29:59.281Z,12.68
2022-10-04T03:35:07.699Z,12.74
2022-10-04T03:40:15.611Z,12.73
2022-10-04T03:45:23.617Z,12.69
2022-10-04T03:50:33.764Z,12.80
2022-10-04T03:55:43.741Z,12.82
2022-10-04T04:01:14.955Z,12.84
2022-10-04T04:06:22.093Z,12.80
2022-10-04T04:11:29.327Z,12.72
2022-10-04T04:16:35.508Z,12.76
2022-10-04T04:21:43.143Z,12.75
2022-10-04T04:26:53.108Z,12.79
2022-10-04T04:32:04.227Z,12.76
2022-10-04T04:37:11.814Z,12.74
2022-10-04T04:42:27.684Z,12.83
2022-10-04T04:47:42.113Z,12.84
2022-10-04T04:52:56.459Z,12.93
2022-10-04T04:58:02.451Z,12.98
2022-10-04T05:03:11.881Z,13.01
2022-10-04T05:08:28.059Z,13.08
2022-10-04T05:13:42.387Z,13.08
2022-10-04T05:18:48.702Z,13.50
2022-10-04T05:23:56.281Z,13.33
2022-10-04T05:29:04.775Z,13.26
2022-10-04T05:34:28.444Z,13.34
2022-10-04T05:39:54.844Z,13.40
2022-10-04T05:45:01.555Z,13.39
2022-10-04T05:50:07.331Z,13.35
2022-10-04T05:55:31.318Z,13.39
2022-10-04T06:00:42.684Z,13.48
2022-10-04T06:05:57.699Z,13.43
2022-10-04T06:11:25.834Z,13.51
2022-10-04T06:16:55.594Z,13.52
2022-10-04T06:22:09.611Z,13.58
2022-10-04T06:27:23.845Z,13.57
2022-10-04T06:32:41.119Z,13.64
2022-10-04T06:38:10.797Z,13.58
2022-10-04T06:43:25.121Z,13.62
2022-10-04T06:48:56.654Z,13.67
2022-10-04T06:54:10.804Z,13.79
2022-10-04T06:59:27.914Z,13.87
2022-10-04T07:10:11.909Z,14.02
2022-10-04T07:15:29.417Z,14.11
2022-10-04T07:20:37.709Z,14.18
2022-10-04T07:25:52.523Z,14.16
2022-10-04T07:31:02.684Z,14.24
2022-10-04T07:36:28.828Z,14.21
2022-10-04T07:41:37.360Z,14.31
2022-10-04T07:46:57.422Z,14.41
2022-10-04T07:52:18.562Z,14.45
2022-10-04T07:57:31.186Z,14.43
2022-10-04T08:02:48.569Z,14.49
2022-10-04T08:08:21.331Z,14.73
2022-10-04T08:13:38.931Z,14.86
2022-10-04T08:19:20.655Z,15.02
2022-10-04T08:24:43.952Z,14.87
2022-10-04T08:29:55.548Z,14.89
2022-10-04T08:35:14.864Z,15.03
2022-10-04T08:40:38.609Z,15.16
2022-10-04T08:46:09.755Z,15.12
2022-10-04T08:51:42.136Z,15.07
2022-10-04T08:57:16.686Z,15.13
2022-10-04T09:02:37.586Z,15.13
2022-10-04T09:08:00.929Z,15.16
2022-10-04T09:13:31.430Z,15.49
2022-10-04T09:19:00.141Z,15.48
2022-10-04T09:24:14.423Z,15.80
2022-10-04T09:29:54.479Z,15.73
2022-10-04T09:35:06.585Z,15.84
2022-10-04T09:40:34.844Z,15.87
2022-10-04T09:45:49.157Z,16.19
2022-10-04T09:51:13.217Z,16.25
2022-10-04T09:56:47.353Z,16.20
2022-10-04T10:02:31.989Z,16.60
2022-10-04T10:07:56.856Z,16.72
2022-10-04T10:13:12.563Z,16.56
2022-10-04T10:18:23.620Z,16.71
2022-10-04T10:23:56.122Z,16.62
2022-10-04T10:29:38.016Z,16.80
2022-10-04T10:34:56.203Z,16.88
2022-10-04T10:40:38.008Z,17.07
2022-10-04T10:46:07.023Z,17.40
2022-10-04T10:51:27.984Z,17.45
2022-10-04T10:57:06.636Z,17.43
2022-10-04T11:02:49.527Z,17.46
2022-10-04T11:08:23.426Z,17.67
2022-10-04T11:13:42.697Z,17.82
2022-10-04T11:19:18.603Z,17.97
2022-10-04T11:25:00.174Z,18.07
2022-10-04T11:30:26.731Z,18.08
2022-10-04T11:35:55.632Z,18.24
2022-10-04T11:41:07.437Z,18.15
2022-10-04T11:46:24.711Z,18.15
2022-10-04T11:51:48.858Z,18.12
2022-10-04T11:57:27.815Z,18.00
2022-10-04T12:03:11.131Z,17.85
2022-10-04T12:08:29.081Z,17.95
2022-10-04T12:13:55.437Z,18.01
2022-10-04T12:19:22.094Z,18.03
2022-10-04T12:24:47.838Z,18.03
2022-10-04T12:30:28.225Z,18.09
2022-10-04T12:35:42.497Z,18.04
2022-10-04T12:40:54.104Z,17.84
2022-10-04T12:46:19.251Z,18.17
2022-10-04T12:51:39.811Z,18.43
2022-10-04T12:56:53.997Z,18.14
2022-10-04T13:02:14.252Z,18.59
2022-10-04T13:07:43.862Z,18.54
2022-10-04T13:13:08.983Z,18.76
2022-10-04T13:18:17.947Z,18.78
2022-10-04T13:23:40.869Z,18.34
2022-10-04T13:28:52.395Z,18.62
2022-10-04T13:34:25.526Z,18.36
2022-10-04T13:39:58.418Z,18.16
2022-10-04T13:45:26.305Z,18.24
2022-10-04T13:50:34.731Z,18.42
2022-10-04T13:56:03.840Z,18.66
2022-10-04T14:01:32.559Z,18.54
2022-10-04T14:06:52.439Z,18.42
2022-10-04T14:12:34.407Z,18.25
2022-10-04T14:17:48.621Z,18.28
2022-10-04T14:23:23.462Z,18.45
2022-10-04T14:28:52.875Z,18.76
2022-10-04T14:34:16.130Z,18.89
2022-10-04T14:39:42.852Z,18.92
2022-10-04T14:44:55.969Z,19.04
2022-10-04T14:50:07.140Z,19.01
2022-10-04T14:55:32.674Z,18.83
2022-10-04T15:00:57.909Z,18.73
2022-10-04T15:06:12.642Z,18.58
2022-10-04T15:11:39.966Z,18.50
2022-10-04T15:17:00.347Z,18.42
2022-10-04T15:22:15.911Z,18.39
2022-10-04T15:27:47.324Z,18.37
2022-10-04T15:33:12.344Z,18.40
2022-10-04T15:38:37.348Z,18.52
2022-10-04T15:43:51.757Z,18.57
2022-10-04T15:49:23.467Z,18.61
2022-10-04T15:54:50.043Z,18.64
2022-10-04T16:00:22.531Z,18.60
2022-10-04T16:05:40.118Z,18.53
2022-10-04T16:11:14.350Z,18.32
2022-10-04T16:16:26.002Z,18.20
2022-10-04T16:21:52.582Z,18.00
2022-10-04T16:27:05.005Z,17.86
2022-10-04T16:32:22.549Z,17.72
2022-10-04T16:37:49.248Z,17.58
2022-10-04T16:43:02.269Z,17.42
2022-10-04T16:48:39.687Z,17.25
2022-10-04T16:53:53.837Z,17.11
2022-10-04T16:59:05.139Z,16.93
2022-10-04T17:04:35.915Z,16.82
2022-10-04T17:10:08.700Z,16.67
2022-10-04T17:15:36.505Z,16.53
2022-10-04T17:20:55.508Z,16.43
2022-10-04T17:26:19.049Z,16.28
2022-10-04T17:31:42.739Z,16.23
2022-10-04T17:36:51.776Z,16.17
2022-10-04T17:42:01.285Z,16.12
2022-10-04T17:47:18.103Z,16.06
2022-10-04T17:52:51.864Z,15.94
2022-10-04T17:58:15.599Z,15.88
2022-10-04T18:03:45.324Z,15.81
2022-10-04T18:09:05.754Z,15.76
2022-10-04T18:14:39.854Z,15.78
2022-10-04T18:19:51.607Z,15.72
2022-10-04T18:25:19.842Z,15.69
2022-10-04T18:30:27.592Z,15.66
2022-10-04T18:35:37.442Z,15.62
2022-10-04T18:40:48.909Z,15.61
2022-10-04T18:52:11.157Z,15.54
2022-10-04T18:57:38.323Z,15.48
2022-10-04T19:03:11.698Z,15.49
2022-10-04T19:08:34.237Z,15.50
2022-10-04T19:13:46.959Z,15.48
2022-10-04T19:18:59.934Z,15.46
2022-10-04T19:24:17.346Z,15.46
2022-10-04T19:29:28.613Z,15.46
2022-10-04T19:34:56.422Z,15.46
2022-10-04T19:40:11.060Z,15.40
2022-10-04T19:45:53.165Z,15.39
2022-10-04T19:51:04.808Z,15.37
2022-10-04T19:56:22.589Z,15.33
2022-10-04T20:01:29.962Z,15.34
2022-10-04T20:06:37.294Z,15.37
2022-10-04T20:11:49.625Z,15.41
2022-10-04T20:16:58.206Z,15.39
2022-10-04T20:22:17.036Z,15.43
2022-10-04T20:27:28.792Z,15.43
2022-10-04T20:32:40.578Z,15.45
2022-10-04T20:38:27.306Z,15.43
2022-10-04T20:43:18.463Z,15.41
2022-10-04T20:48:29.710Z,15.43
2022-10-04T20:53:35.397Z,15.40
2022-10-04T20:58:41.493Z,15.39
2022-10-04T21:03:47.847Z,15.41
2022-10-04T21:08:53.366Z,15.40
2022-10-04T21:14:01.212Z,15.41
2022-10-04T21:19:31.331Z,15.34
2022-10-04T21:24:44.845Z,15.39
2022-10-04T21:29:50.301Z,15.40
2022-10-04T21:34:55.844Z,15.38
2022-10-04T21:40:01.413Z,15.39
2022-10-04T21:45:07.516Z,15.40
2022-10-04T21:50:13.567Z,15.46
2022-10-04T21:55:19.195Z,15.54
2022-10-04T22:00:25.631Z,15.50
2022-10-04T22:05:31.423Z,15.47
2022-10-04T22:10:36.940Z,15.46
2022-10-04T22:15:42.622Z,15.48
2022-10-04T22:20:48.075Z,15.48
2022-10-04T22:25:54.617Z,15.46
2022-10-04T22:30:59.995Z,15.42
2022-10-04T22:36:34.227Z,15.39
2022-10-04T22:41:48.192Z,15.37
2022-10-04T22:46:56.381Z,15.34
2022-10-04T22:52:05.108Z,15.32
2022-10-04T22:57:14.388Z,15.30
2022-10-04T23:02:29.197Z,15.29
2022-10-04T23:07:38.167Z,15.24
2022-10-04T23:12:43.426Z,15.21
2022-10-04T23:17:56.025Z,15.20
2022-10-04T23:23:01.672Z,15.18
2022-10-04T23:28:11.343Z,15.10
2022-10-04T23:33:22.817Z,15.08
2022-10-04T23:38:30.621Z,15.04
2022-10-04T23:43:36.573Z,15.02
2022-10-04T23:48:42.958Z,15.03
2022-10-04T23:53:51.696Z,15.02
2022-10-04T23:58:59.720Z,15.01
